sensor_id;sensor_type;location;lat;lon;timestamp;pressure;altitude;pressure_sealevel;temperature;humidity
15932;BME280;8065;49.520;11.284;2023-06-10T00:01:13;97219.63;;;19.92;68.09
15932;BME280;8065;49.520;11.284;2023-06-10T00:03:40;97221.53;;;19.85;68.36
15932;BME280;8065;49.520;11.284;2023-06-10T00:06:08;97219.22;;;19.83;68.20
15932;BME280;8065;49.520;11.284;2023-06-10T00:08:35;97223.47;;;19.91;67.86
15932;BME280;8065;49.520;11.284;2023-06-10T00:11:04;97219.19;;;19.94;68.16
15932;BME280;8065;49.520;11.284;2023-06-10T00:13:30;97219.22;;;19.83;68.72
15932;BME280;8065;49.520;11.284;2023-06-10T00:15:56;97216.13;;;19.81;68.61
15932;BME280;8065;49.520;11.284;2023-06-10T00:18:23;97212.28;;;19.75;68.86
15932;BME280;8065;49.520;11.284;2023-06-10T00:20:52;97218.81;;;19.67;69.06
15932;BME280;8065;49.520;11.284;2023-06-10T00:23:20;97214.50;;;19.45;70.09
15932;BME280;8065;49.520;11.284;2023-06-10T00:25:46;97214.88;;;19.32;70.41
15932;BME280;8065;49.520;11.284;2023-06-10T00:28:14;97219.06;;;19.23;70.85
15932;BME280;8065;49.520;11.284;2023-06-10T00:30:41;97220.19;;;19.11;71.34
15932;BME280;8065;49.520;11.284;2023-06-10T00:33:07;97213.63;;;18.98;71.74
15932;BME280;8065;49.520;11.284;2023-06-10T00:35:35;97214.03;;;19.00;71.93
15932;BME280;8065;49.520;11.284;2023-06-10T00:38:01;97212.13;;;19.04;71.47
15932;BME280;8065;49.520;11.284;2023-06-10T00:40:27;97219.00;;;18.98;71.71
15932;BME280;8065;49.520;11.284;2023-06-10T00:42:54;97210.91;;;18.91;72.01
15932;BME280;8065;49.520;11.284;2023-06-10T00:45:22;97208.25;;;19.02;71.71
15932;BME280;8065;49.520;11.284;2023-06-10T00:47:48;97210.16;;;18.94;71.68
15932;BME280;8065;49.520;11.284;2023-06-10T00:50:14;97208.91;;;18.74;72.44
15932;BME280;8065;49.520;11.284;2023-06-10T00:52:42;97214.38;;;18.91;71.68
15932;BME280;8065;49.520;11.284;2023-06-10T00:55:10;97214.03;;;19.00;71.55
15932;BME280;8065;49.520;11.284;2023-06-10T00:57:36;97212.13;;;19.04;71.50
15932;BME280;8065;49.520;11.284;2023-06-10T01:00:05;97203.63;;;19.09;71.59
15932;BME280;8065;49.520;11.284;2023-06-10T01:02:35;97210.19;;;19.12;71.07
15932;BME280;8065;49.520;11.284;2023-06-10T01:05:02;97207.13;;;19.13;71.06
15932;BME280;8065;49.520;11.284;2023-06-10T01:07:34;97208.94;;;18.84;72.30
15932;BME280;8065;49.520;11.284;2023-06-10T01:10:07;97205.16;;;18.96;71.99
15932;BME280;8065;49.520;11.284;2023-06-10T01:12:41;97210.56;;;19.03;71.95
15932;BME280;8065;49.520;11.284;2023-06-10T01:15:13;97207.47;;;19.01;72.98
15932;BME280;8065;49.520;11.284;2023-06-10T01:17:55;97209.41;;;19.11;72.87
15932;BME280;8065;49.520;11.284;2023-06-10T01:20:22;97205.56;;;18.98;73.70
15932;BME280;8065;49.520;11.284;2023-06-10T01:22:50;97207.06;;;18.95;73.80
15932;BME280;8065;49.520;11.284;2023-06-10T01:25:19;97209.75;;;18.88;73.98
15932;BME280;8065;49.520;11.284;2023-06-10T01:27:53;97207.44;;;18.90;73.89
15932;BME280;8065;49.520;11.284;2023-06-10T01:30:27;97209.72;;;18.81;73.84
15932;BME280;8065;49.520;11.284;2023-06-10T01:32:58;97208.16;;;18.80;73.94
15932;BME280;8065;49.520;11.284;2023-06-10T01:35:26;97215.41;;;18.69;74.35
15932;BME280;8065;49.520;11.284;2023-06-10T01:37:57;97211.19;;;18.68;74.35
15932;BME280;8065;49.520;11.284;2023-06-10T01:40:25;97217.78;;;18.78;74.23
15932;BME280;8065;49.520;11.284;2023-06-10T01:42:52;97217.41;;;18.83;74.61
15932;BME280;8065;49.520;11.284;2023-06-10T01:45:19;97218.19;;;18.87;74.33
15932;BME280;8065;49.520;11.284;2023-06-10T01:47:45;97219.69;;;18.77;74.63
15932;BME280;8065;49.520;11.284;2023-06-10T01:50:12;97220.13;;;18.90;73.97
15932;BME280;8065;49.520;11.284;2023-06-10T01:52:38;97215.09;;;18.81;74.51
15932;BME280;8065;49.520;11.284;2023-06-10T01:55:07;97215.06;;;18.78;74.32
15932;BME280;8065;49.520;11.284;2023-06-10T01:57:33;97213.59;;;18.87;73.96
15932;BME280;8065;49.520;11.284;2023-06-10T02:00:00;97225.03;;;18.66;75.19
15932;BME280;8065;49.520;11.284;2023-06-10T02:02:26;97219.56;;;18.59;75.06
15932;BME280;8065;49.520;11.284;2023-06-10T02:04:52;97218.72;;;18.48;75.52
15932;BME280;8065;49.520;11.284;2023-06-10T02:07:19;97227.22;;;18.54;75.10
15932;BME280;8065;49.520;11.284;2023-06-10T02:09:45;97224.06;;;18.41;75.67
15932;BME280;8065;49.520;11.284;2023-06-10T02:12:13;97223.28;;;18.37;75.91
15932;BME280;8065;49.520;11.284;2023-06-10T02:14:40;97225.25;;;18.47;75.60
15932;BME280;8065;49.520;11.284;2023-06-10T02:17:06;97216.44;;;18.50;75.20
15932;BME280;8065;49.520;11.284;2023-06-10T02:19:32;97217.22;;;18.54;75.52
15932;BME280;8065;49.520;11.284;2023-06-10T02:22:01;97227.28;;;18.61;75.06
15932;BME280;8065;49.520;11.284;2023-06-10T02:24:28;97220.03;;;18.69;74.75
15932;BME280;8065;49.520;11.284;2023-06-10T02:26:54;97228.78;;;18.58;75.40
15932;BME280;8065;49.520;11.284;2023-06-10T02:29:23;97218.47;;;18.67;75.04
15932;BME280;8065;49.520;11.284;2023-06-10T02:31:50;97218.47;;;18.67;75.20
15932;BME280;8065;49.520;11.284;2023-06-10T02:34:18;97214.94;;;18.60;75.75
15932;BME280;8065;49.520;11.284;2023-06-10T02:36:44;97216.69;;;18.31;77.03
15932;BME280;8065;49.520;11.284;2023-06-10T02:39:11;97223.16;;;18.16;77.69
15932;BME280;8065;49.520;11.284;2023-06-10T02:41:38;97218.59;;;18.27;77.10
15932;BME280;8065;49.520;11.284;2023-06-10T02:44:04;97218.41;;;17.98;78.10
15932;BME280;8065;49.520;11.284;2023-06-10T02:46:32;97219.66;;;18.12;77.32
15932;BME280;8065;49.520;11.284;2023-06-10T02:48:59;97219.94;;;17.99;77.91
15932;BME280;8065;49.520;11.284;2023-06-10T02:51:25;97221.22;;;17.68;79.10
15932;BME280;8065;49.520;11.284;2023-06-10T02:53:52;97222.13;;;17.83;78.31
15932;BME280;8065;49.520;11.284;2023-06-10T02:56:19;97217.53;;;17.87;77.85
15932;BME280;8065;49.520;11.284;2023-06-10T02:58:47;97221.25;;;17.72;78.56
15932;BME280;8065;49.520;11.284;2023-06-10T03:01:13;97232.13;;;17.86;78.00
15932;BME280;8065;49.520;11.284;2023-06-10T03:03:41;97226.00;;;17.89;78.05
15932;BME280;8065;49.520;11.284;2023-06-10T03:06:09;97227.94;;;17.89;78.15
15932;BME280;8065;49.520;11.284;2023-06-10T03:08:37;97219.84;;;17.85;78.51
15932;BME280;8065;49.520;11.284;2023-06-10T03:11:04;97229.56;;;18.00;78.00
15932;BME280;8065;49.520;11.284;2023-06-10T03:13:30;97226.53;;;18.06;77.67
15932;BME280;8065;49.520;11.284;2023-06-10T03:15:56;97231.06;;;17.98;78.00
15932;BME280;8065;49.520;11.284;2023-06-10T03:18:26;97232.97;;;17.94;77.94
15932;BME280;8065;49.520;11.284;2023-06-10T03:20:54;97229.09;;;17.91;78.16
15932;BME280;8065;49.520;11.284;2023-06-10T03:23:21;97233.75;;;17.94;78.31
15932;BME280;8065;49.520;11.284;2023-06-10T03:25:48;97230.00;;;18.06;77.90
15932;BME280;8065;49.520;11.284;2023-06-10T03:28:14;97237.88;;;17.85;78.87
15932;BME280;8065;49.520;11.284;2023-06-10T03:30:41;97235.09;;;17.74;78.92
15932;BME280;8065;49.520;11.284;2023-06-10T03:33:07;97238.00;;;17.62;79.30
15932;BME280;8065;49.520;11.284;2023-06-10T03:35:34;97223.63;;;17.81;78.34
15932;BME280;8065;49.520;11.284;2023-06-10T03:38:02;97223.72;;;17.91;78.04
15932;BME280;8065;49.520;11.284;2023-06-10T03:40:29;97223.38;;;17.96;78.63
15932;BME280;8065;49.520;11.284;2023-06-10T03:42:57;97222.97;;;17.94;78.74
15932;BME280;8065;49.520;11.284;2023-06-10T03:45:23;97222.28;;;18.01;78.47
15932;BME280;8065;49.520;11.284;2023-06-10T03:47:50;97215.34;;;18.00;78.88
15932;BME280;8065;49.520;11.284;2023-06-10T03:50:17;97223.78;;;17.98;79.14
15932;BME280;8065;49.520;11.284;2023-06-10T03:52:43;97229.22;;;18.06;78.65
15932;BME280;8065;49.520;11.284;2023-06-10T03:55:12;97226.00;;;17.89;79.65
15932;BME280;8065;49.520;11.284;2023-06-10T03:57:38;97226.81;;;17.93;79.76
15932;BME280;8065;49.520;11.284;2023-06-10T04:00:06;97227.31;;;18.06;79.02
15932;BME280;8065;49.520;11.284;2023-06-10T04:02:36;97233.03;;;18.01;78.95
15932;BME280;8065;49.520;11.284;2023-06-10T04:05:03;97235.31;;;17.99;78.82
15932;BME280;8065;49.520;11.284;2023-06-10T04:07:30;97240.72;;;18.02;78.68
15932;BME280;8065;49.520;11.284;2023-06-10T04:09:57;97234.59;;;18.06;78.51
15932;BME280;8065;49.520;11.284;2023-06-10T04:12:25;97233.03;;;18.01;78.86
15932;BME280;8065;49.520;11.284;2023-06-10T04:14:51;97230.06;;;18.20;78.10
15932;BME280;8065;49.520;11.284;2023-06-10T04:17:18;97226.72;;;18.34;77.75
15932;BME280;8065;49.520;11.284;2023-06-10T04:19:44;97232.50;;;18.40;77.77
15932;BME280;8065;49.520;11.284;2023-06-10T04:22:11;97228.66;;;18.37;78.03
15932;BME280;8065;49.520;11.284;2023-06-10T04:24:38;97230.16;;;18.31;78.37
15932;BME280;8065;49.520;11.284;2023-06-10T04:27:05;97237.06;;;18.32;78.53
15932;BME280;8065;49.520;11.284;2023-06-10T04:29:33;97235.44;;;18.17;79.19
15932;BME280;8065;49.520;11.284;2023-06-10T04:31:59;97226.31;;;18.32;78.66
15932;BME280;8065;49.520;11.284;2023-06-10T04:34:26;97233.97;;;18.30;78.94
15932;BME280;8065;49.520;11.284;2023-06-10T04:36:53;97231.38;;;18.44;78.57
15932;BME280;8065;49.520;11.284;2023-06-10T04:39:19;97225.63;;;18.42;78.64
15932;BME280;8065;49.520;11.284;2023-06-10T04:41:46;97231.75;;;18.39;79.13
15932;BME280;8065;49.520;11.284;2023-06-10T04:44:12;97235.66;;;18.52;78.50
15932;BME280;8065;49.520;11.284;2023-06-10T04:46:41;97238.09;;;18.68;78.32
15932;BME280;8065;49.520;11.284;2023-06-10T04:49:07;97240.84;;;18.79;78.02
15932;BME280;8065;49.520;11.284;2023-06-10T04:51:33;97245.16;;;18.94;77.73
15932;BME280;8065;49.520;11.284;2023-06-10T04:54:00;97244.38;;;18.90;77.97
15932;BME280;8065;49.520;11.284;2023-06-10T04:56:29;97239.81;;;19.12;77.14
15932;BME280;8065;49.520;11.284;2023-06-10T04:58:56;97241.00;;;19.21;76.96
15932;BME280;8065;49.520;11.284;2023-06-10T05:01:22;97236.00;;;19.23;77.44
15932;BME280;8065;49.520;11.284;2023-06-10T05:03:50;97239.91;;;19.37;76.80
15932;BME280;8065;49.520;11.284;2023-06-10T05:06:17;97243.78;;;19.43;76.76
15932;BME280;8065;49.520;11.284;2023-06-10T05:08:43;97250.69;;;19.44;76.99
15932;BME280;8065;49.520;11.284;2023-06-10T05:11:10;97246.13;;;19.55;76.91
15932;BME280;8065;49.520;11.284;2023-06-10T05:13:36;97240.03;;;19.79;75.83
15932;BME280;8065;49.520;11.284;2023-06-10T05:16:08;97250.78;;;19.93;75.59
15932;BME280;8065;49.520;11.284;2023-06-10T05:18:34;97241.94;;;20.07;75.02
15932;BME280;8065;49.520;11.284;2023-06-10T05:21:02;97243.09;;;20.20;74.77
15932;BME280;8065;49.520;11.284;2023-06-10T05:23:29;97248.50;;;20.27;74.30
15932;BME280;8065;49.520;11.284;2023-06-10T05:25:55;97247.34;;;20.25;75.05
15932;BME280;8065;49.520;11.284;2023-06-10T05:28:22;97252.34;;;20.37;74.65
15932;BME280;8065;49.520;11.284;2023-06-10T05:30:48;97250.81;;;20.50;74.48
15932;BME280;8065;49.520;11.284;2023-06-10T05:33:15;97260.81;;;20.60;74.34
15932;BME280;8065;49.520;11.284;2023-06-10T05:35:41;97258.88;;;20.65;74.21
15932;BME280;8065;49.520;11.284;2023-06-10T05:38:09;97261.56;;;20.68;73.77
15932;BME280;8065;49.520;11.284;2023-06-10T05:40:35;97255.78;;;20.77;73.76
15932;BME280;8065;49.520;11.284;2023-06-10T05:43:02;97255.69;;;20.98;73.40
15932;BME280;8065;49.520;11.284;2023-06-10T05:45:28;97255.22;;;21.17;72.33
15932;BME280;8065;49.520;11.284;2023-06-10T05:47:55;97255.59;;;21.19;72.49
15932;BME280;8065;49.520;11.284;2023-06-10T05:50:21;97255.22;;;21.24;72.50
15932;BME280;8065;49.520;11.284;2023-06-10T05:52:48;97264.84;;;21.36;72.32
15932;BME280;8065;49.520;11.284;2023-06-10T05:55:16;97260.22;;;21.30;71.47
15932;BME280;8065;49.520;11.284;2023-06-10T05:57:42;97257.50;;;21.37;71.00
15932;BME280;8065;49.520;11.284;2023-06-10T06:00:10;97255.88;;;21.50;70.91
15932;BME280;8065;49.520;11.284;2023-06-10T06:02:36;97256.59;;;21.57;71.25
15932;BME280;8065;49.520;11.284;2023-06-10T06:05:03;97255.75;;;21.68;71.33
15932;BME280;8065;49.520;11.284;2023-06-10T06:07:29;97254.91;;;21.78;70.88
15932;BME280;8065;49.520;11.284;2023-06-10T06:09:56;97251.75;;;21.90;71.11
15932;BME280;8065;49.520;11.284;2023-06-10T06:12:24;97247.03;;;22.05;70.89
15932;BME280;8065;49.520;11.284;2023-06-10T06:14:50;97257.34;;;22.20;70.31
15932;BME280;8065;49.520;11.284;2023-06-10T06:17:16;97252.75;;;22.14;70.24
15932;BME280;8065;49.520;11.284;2023-06-10T06:19:43;97247.59;;;22.30;69.60
15932;BME280;8065;49.520;11.284;2023-06-10T06:22:12;97252.13;;;22.40;69.60
15932;BME280;8065;49.520;11.284;2023-06-10T06:24:38;97246.66;;;22.47;69.56
15932;BME280;8065;49.520;11.284;2023-06-10T06:27:05;97253.88;;;22.57;69.18
15932;BME280;8065;49.520;11.284;2023-06-10T06:29:33;97251.81;;;22.72;69.18
15932;BME280;8065;49.520;11.284;2023-06-10T06:31:59;97256.34;;;22.86;68.86
15932;BME280;8065;49.520;11.284;2023-06-10T06:34:26;97248.03;;;23.00;68.60
15932;BME280;8065;49.520;11.284;2023-06-10T06:36:53;97240.09;;;23.16;68.27
15932;BME280;8065;49.520;11.284;2023-06-10T06:39:19;97248.88;;;23.28;67.90
15932;BME280;8065;49.520;11.284;2023-06-10T06:41:46;97245.31;;;23.34;67.66
15932;BME280;8065;49.520;11.284;2023-06-10T06:44:12;97252.81;;;23.53;67.08
15932;BME280;8065;49.520;11.284;2023-06-10T06:46:40;97242.16;;;23.66;66.46
15932;BME280;8065;49.520;11.284;2023-06-10T06:49:06;97243.50;;;23.81;64.61
15932;BME280;8065;49.520;11.284;2023-06-10T06:51:33;97250.72;;;24.15;64.60
15932;BME280;8065;49.520;11.284;2023-06-10T06:54:00;97245.91;;;24.26;64.52
15932;BME280;8065;49.520;11.284;2023-06-10T06:56:27;97250.84;;;24.55;62.89
15932;BME280;8065;49.520;11.284;2023-06-10T06:58:53;97256.56;;;24.60;62.84
15932;BME280;8065;49.520;11.284;2023-06-10T07:01:20;97260.66;;;24.48;62.30
15932;BME280;8065;49.520;11.284;2023-06-10T07:03:47;97252.06;;;24.73;62.72
15932;BME280;8065;49.520;11.284;2023-06-10T07:06:14;97256.16;;;24.62;61.42
15932;BME280;8065;49.520;11.284;2023-06-10T07:08:40;97254.69;;;24.57;61.96
15932;BME280;8065;49.520;11.284;2023-06-10T07:11:07;97249.25;;;25.00;61.33
15932;BME280;8065;49.520;11.284;2023-06-10T07:13:33;97254.66;;;25.20;60.59
15932;BME280;8065;49.520;11.284;2023-06-10T07:16:00;97250.63;;;25.08;60.63
15932;BME280;8065;49.520;11.284;2023-06-10T07:18:26;97250.63;;;25.08;60.54
15932;BME280;8065;49.520;11.284;2023-06-10T07:20:54;97244.75;;;24.90;60.91
15932;BME280;8065;49.520;11.284;2023-06-10T07:23:20;97248.78;;;25.22;61.42
15932;BME280;8065;49.520;11.284;2023-06-10T07:25:47;97240.72;;;25.54;60.60
15932;BME280;8065;49.520;11.284;2023-06-10T07:28:13;97235.69;;;25.72;59.68
15932;BME280;8065;49.520;11.284;2023-06-10T07:30:40;97240.44;;;25.85;59.92
15932;BME280;8065;49.520;11.284;2023-06-10T07:33:06;97239.59;;;25.88;59.23
15932;BME280;8065;49.520;11.284;2023-06-10T07:35:33;97237.88;;;26.10;59.27
15932;BME280;8065;49.520;11.284;2023-06-10T07:38:01;97233.44;;;26.16;58.59
15932;BME280;8065;49.520;11.284;2023-06-10T07:40:27;97233.09;;;26.14;57.50
15932;BME280;8065;49.520;11.284;2023-06-10T07:42:54;97231.22;;;26.27;58.38
15932;BME280;8065;49.520;11.284;2023-06-10T07:45:21;97238.03;;;26.19;57.69
15932;BME280;8065;49.520;11.284;2023-06-10T07:47:47;97238.91;;;26.32;56.37
15932;BME280;8065;49.520;11.284;2023-06-10T07:50:14;97241.56;;;26.36;56.09
15932;BME280;8065;49.520;11.284;2023-06-10T07:52:40;97241.09;;;26.21;56.06
15932;BME280;8065;49.520;11.284;2023-06-10T07:55:08;97257.47;;;26.05;56.54
15932;BME280;8065;49.520;11.284;2023-06-10T07:57:35;97239.94;;;26.38;55.85
15932;BME280;8065;49.520;11.284;2023-06-10T08:00:04;97245.16;;;26.62;56.17
15932;BME280;8065;49.520;11.284;2023-06-10T08:02:31;97244.47;;;26.74;54.24
15932;BME280;8065;49.520;11.284;2023-06-10T08:04:57;97240.03;;;26.93;55.85
15932;BME280;8065;49.520;11.284;2023-06-10T08:07:24;97242.31;;;26.94;54.89
15932;BME280;8065;49.520;11.284;2023-06-10T08:09:50;97246.56;;;26.95;53.69
15932;BME280;8065;49.520;11.284;2023-06-10T08:12:18;97245.38;;;26.84;54.88
15932;BME280;8065;49.520;11.284;2023-06-10T08:14:45;97245.81;;;26.82;53.76
15932;BME280;8065;49.520;11.284;2023-06-10T08:17:11;97245.31;;;27.00;53.63
15932;BME280;8065;49.520;11.284;2023-06-10T08:19:38;97243.94;;;26.92;53.79
15932;BME280;8065;49.520;11.284;2023-06-10T08:22:04;97246.75;;;27.04;52.77
15932;BME280;8065;49.520;11.284;2023-06-10T08:24:31;97256.66;;;27.40;52.86
15932;BME280;8065;49.520;11.284;2023-06-10T08:26:57;97249.44;;;27.46;53.04
15932;BME280;8065;49.520;11.284;2023-06-10T08:29:25;97250.97;;;27.47;54.13
15932;BME280;8065;49.520;11.284;2023-06-10T08:31:52;97252.88;;;26.80;54.73
15932;BME280;8065;49.520;11.284;2023-06-10T08:34:18;97243.84;;;26.95;54.45
15932;BME280;8065;49.520;11.284;2023-06-10T08:36:45;97244.63;;;27.25;53.88
15932;BME280;8065;49.520;11.284;2023-06-10T08:39:11;97245.88;;;27.07;53.85
15932;BME280;8065;49.520;11.284;2023-06-10T08:41:43;97243.94;;;27.21;54.44
15932;BME280;8065;49.520;11.284;2023-06-10T08:44:17;97248.59;;;27.49;53.58
15932;BME280;8065;49.520;11.284;2023-06-10T08:46:49;97243.50;;;27.09;54.55
15932;BME280;8065;49.520;11.284;2023-06-10T08:49:18;97249.50;;;26.88;54.75
15932;BME280;8065;49.520;11.284;2023-06-10T08:51:48;97241.41;;;26.72;54.89
15932;BME280;8065;49.520;11.284;2023-06-10T08:54:18;97244.16;;;26.56;55.44
15932;BME280;8065;49.520;11.284;2023-06-10T08:56:49;97244.16;;;26.56;55.05
15932;BME280;8065;49.520;11.284;2023-06-10T08:59:16;97239.16;;;27.25;53.93
15932;BME280;8065;49.520;11.284;2023-06-10T09:01:43;97244.66;;;27.50;54.20
15932;BME280;8065;49.520;11.284;2023-06-10T09:04:11;97247.94;;;27.96;53.17
15932;BME280;8065;49.520;11.284;2023-06-10T09:06:38;97240.59;;;28.05;52.27
15932;BME280;8065;49.520;11.284;2023-06-10T09:09:06;97249.00;;;28.36;52.63
15932;BME280;8065;49.520;11.284;2023-06-10T09:11:33;97237.94;;;28.40;52.45
15932;BME280;8065;49.520;11.284;2023-06-10T09:14:00;97242.41;;;28.68;51.57
15932;BME280;8065;49.520;11.284;2023-06-10T09:16:26;97245.13;;;28.47;51.04
15932;BME280;8065;49.520;11.284;2023-06-10T09:18:53;97245.88;;;28.60;51.28
15932;BME280;8065;49.520;11.284;2023-06-10T09:21:22;97249.72;;;28.50;51.21
15932;BME280;8065;49.520;11.284;2023-06-10T09:23:48;97244.16;;;28.41;51.42
15932;BME280;8065;49.520;11.284;2023-06-10T09:26:15;97238.22;;;28.55;52.17
15932;BME280;8065;49.520;11.284;2023-06-10T09:28:41;97244.75;;;28.92;51.80
15932;BME280;8065;49.520;11.284;2023-06-10T09:31:09;97244.38;;;29.02;51.30
15932;BME280;8065;49.520;11.284;2023-06-10T09:33:37;97246.53;;;28.73;50.91
15932;BME280;8065;49.520;11.284;2023-06-10T09:36:03;97238.72;;;28.62;50.69
15932;BME280;8065;49.520;11.284;2023-06-10T09:38:32;97241.38;;;28.88;51.45
15932;BME280;8065;49.520;11.284;2023-06-10T09:40:59;97247.28;;;28.86;51.00
15932;BME280;8065;49.520;11.284;2023-06-10T09:43:39;97234.44;;;28.39;50.60
15932;BME280;8065;49.520;11.284;2023-06-10T09:46:05;97234.53;;;28.70;50.24
15932;BME280;8065;49.520;11.284;2023-06-10T09:48:34;97240.00;;;28.49;50.90
15932;BME280;8065;49.520;11.284;2023-06-10T09:51:01;97239.28;;;28.92;51.02
15932;BME280;8065;49.520;11.284;2023-06-10T09:53:27;97235.66;;;28.38;51.29
15932;BME280;8065;49.520;11.284;2023-06-10T09:55:57;97231.09;;;28.79;50.77
15932;BME280;8065;49.520;11.284;2023-06-10T09:58:34;97236.97;;;28.90;51.31
15932;BME280;8065;49.520;11.284;2023-06-10T10:01:04;97239.38;;;29.32;50.21
15932;BME280;8065;49.520;11.284;2023-06-10T10:03:31;97219.38;;;29.84;48.66
15932;BME280;8065;49.520;11.284;2023-06-10T10:05:58;97223.59;;;29.76;48.10
15932;BME280;8065;49.520;11.284;2023-06-10T10:08:25;97232.75;;;29.82;48.08
15932;BME280;8065;49.520;11.284;2023-06-10T10:10:52;97227.28;;;29.82;48.23
15932;BME280;8065;49.520;11.284;2023-06-10T10:13:20;97233.09;;;29.53;48.66
15932;BME280;8065;49.520;11.284;2023-06-10T10:15:47;97236.97;;;28.90;50.53
15932;BME280;8065;49.520;11.284;2023-06-10T10:18:14;97233.94;;;28.88;49.43
15932;BME280;8065;49.520;11.284;2023-06-10T10:20:46;97234.94;;;29.25;49.66
15932;BME280;8065;49.520;11.284;2023-06-10T10:23:14;97228.59;;;29.68;49.81
15932;BME280;8065;49.520;11.284;2023-06-10T10:25:49;97234.81;;;28.85;50.21
15932;BME280;8065;49.520;11.284;2023-06-10T10:28:21;97230.34;;;29.53;49.48
15932;BME280;8065;49.520;11.284;2023-06-10T10:30:54;97225.00;;;29.90;48.93
15932;BME280;8065;49.520;11.284;2023-06-10T10:33:36;97233.06;;;29.44;50.19
15932;BME280;8065;49.520;11.284;2023-06-10T10:36:06;97235.59;;;29.69;49.06
15932;BME280;8065;49.520;11.284;2023-06-10T10:38:34;97225.00;;;29.90;48.66
15932;BME280;8065;49.520;11.284;2023-06-10T10:41:02;97233.84;;;29.54;48.92
15932;BME280;8065;49.520;11.284;2023-06-10T10:43:30;97227.91;;;29.46;50.32
15932;BME280;8065;49.520;11.284;2023-06-10T10:46:00;97229.00;;;29.58;49.66
15932;BME280;8065;49.520;11.284;2023-06-10T10:48:27;97224.78;;;30.06;49.40
15932;BME280;8065;49.520;11.284;2023-06-10T10:50:59;97223.31;;;30.32;48.72
15932;BME280;8065;49.520;11.284;2023-06-10T10:53:26;97237.56;;;30.00;48.80
15932;BME280;8065;49.520;11.284;2023-06-10T10:55:59;97239.19;;;29.57;48.85
15932;BME280;8065;49.520;11.284;2023-06-10T10:58:25;97240.19;;;29.73;48.49
15932;BME280;8065;49.520;11.284;2023-06-10T11:00:54;97230.19;;;29.48;49.69
15932;BME280;8065;49.520;11.284;2023-06-10T11:03:20;97232.13;;;30.18;48.78
15932;BME280;8065;49.520;11.284;2023-06-10T11:05:48;97231.91;;;29.63;48.62
15932;BME280;8065;49.520;11.284;2023-06-10T11:08:15;97220.53;;;30.14;48.38
15932;BME280;8065;49.520;11.284;2023-06-10T11:10:51;97222.88;;;29.85;48.57
15932;BME280;8065;49.520;11.284;2023-06-10T11:13:19;97218.19;;;29.45;49.75
15932;BME280;8065;49.520;11.284;2023-06-10T11:15:47;97224.63;;;29.08;49.99
15932;BME280;8065;49.520;11.284;2023-06-10T11:18:23;97227.00;;;28.96;50.38
15932;BME280;8065;49.520;11.284;2023-06-10T11:23:41;97222.50;;;29.64;48.81
15932;BME280;8065;49.520;11.284;2023-06-10T11:26:16;97229.38;;;30.18;47.38
15932;BME280;8065;49.520;11.284;2023-06-10T11:29:01;97228.94;;;29.80;47.77
15932;BME280;8065;49.520;11.284;2023-06-10T11:31:30;97216.97;;;29.95;47.55
15932;BME280;8065;49.520;11.284;2023-06-10T11:33:59;97219.97;;;29.79;48.35
15932;BME280;8065;49.520;11.284;2023-06-10T11:36:27;97219.06;;;29.42;48.85
15932;BME280;8065;49.520;11.284;2023-06-10T11:38:56;97216.16;;;29.86;48.25
15932;BME280;8065;49.520;11.284;2023-06-10T11:41:23;97212.94;;;30.18;47.78
15932;BME280;8065;49.520;11.284;2023-06-10T11:43:51;97210.19;;;30.46;47.57
15932;BME280;8065;49.520;11.284;2023-06-10T11:46:18;97204.09;;;30.87;47.32
15932;BME280;8065;49.520;11.284;2023-06-10T11:48:48;97205.59;;;30.15;47.49
15932;BME280;8065;49.520;11.284;2023-06-10T11:51:16;97210.31;;;30.06;47.48
15932;BME280;8065;49.520;11.284;2023-06-10T11:53:44;97204.31;;;29.89;47.83
15932;BME280;8065;49.520;11.284;2023-06-10T11:56:10;97208.19;;;29.69;47.56
15932;BME280;8065;49.520;11.284;2023-06-10T11:58:37;97213.53;;;30.50;48.03
15932;BME280;8065;49.520;11.284;2023-06-10T12:01:04;97203.63;;;30.43;47.77
15932;BME280;8065;49.520;11.284;2023-06-10T12:03:35;97201.50;;;30.56;47.88
15932;BME280;8065;49.520;11.284;2023-06-10T12:06:04;97206.53;;;30.85;47.92
15932;BME280;8065;49.520;11.284;2023-06-10T12:08:33;97205.63;;;30.88;48.01
15932;BME280;8065;49.520;11.284;2023-06-10T12:11:00;97204.59;;;31.37;46.40
15932;BME280;8065;49.520;11.284;2023-06-10T12:13:27;97210.84;;;31.80;45.92
15932;BME280;8065;49.520;11.284;2023-06-10T12:15:54;97202.09;;;31.48;45.27
15932;BME280;8065;49.520;11.284;2023-06-10T12:18:22;97202.00;;;31.34;45.67
15932;BME280;8065;49.520;11.284;2023-06-10T12:20:49;97203.41;;;31.29;46.19
15932;BME280;8065;49.520;11.284;2023-06-10T12:23:16;97195.22;;;31.20;46.88
15932;BME280;8065;49.520;11.284;2023-06-10T12:25:51;97194.06;;;30.66;46.58
15932;BME280;8065;49.520;11.284;2023-06-10T12:28:20;97191.63;;;30.68;47.59
15932;BME280;8065;49.520;11.284;2023-06-10T12:30:47;97194.97;;;30.26;45.61
15932;BME280;8065;49.520;11.284;2023-06-10T12:33:17;97193.19;;;29.92;46.94
15932;BME280;8065;49.520;11.284;2023-06-10T12:35:47;97186.88;;;30.32;47.00
15932;BME280;8065;49.520;11.284;2023-06-10T12:38:14;97191.91;;;30.61;47.42
15932;BME280;8065;49.520;11.284;2023-06-10T12:40:40;97183.38;;;30.77;45.22
15932;BME280;8065;49.520;11.284;2023-06-10T12:43:09;97176.38;;;31.37;45.86
15932;BME280;8065;49.520;11.284;2023-06-10T12:45:37;97176.06;;;31.35;44.73
15932;BME280;8065;49.520;11.284;2023-06-10T12:48:05;97176.06;;;31.68;44.14
15932;BME280;8065;49.520;11.284;2023-06-10T12:50:34;97171.34;;;32.01;44.39
15932;BME280;8065;49.520;11.284;2023-06-10T12:53:02;97168.97;;;32.33;44.07
15932;BME280;8065;49.520;11.284;2023-06-10T12:55:28;97180.56;;;31.89;44.25
15932;BME280;8065;49.520;11.284;2023-06-10T12:57:55;97178.59;;;31.47;44.75
15932;BME280;8065;49.520;11.284;2023-06-10T13:00:24;97179.91;;;31.70;44.17
15932;BME280;8065;49.520;11.284;2023-06-10T13:02:53;97165.16;;;31.49;44.20
15932;BME280;8065;49.520;11.284;2023-06-10T13:05:20;97167.69;;;31.29;44.33